createdAt,value
2023-03-24T00:00:33.686Z,79.08
2023-03-24T00:01:47.671Z,79.33
2023-03-24T00:03:02.947Z,79.52
2023-03-24T00:04:15.506Z,79.38
2023-03-24T00:05:38.304Z,79.21
2023-03-24T00:07:01.640Z,79.21
2023-03-24T00:08:24.153Z,79.30
2023-03-24T00:09:47.177Z,79.38
2023-03-24T00:11:12.509Z,79.22
2023-03-24T00:12:38.334Z,79.35
2023-03-24T00:14:00.894Z,79.38
2023-03-24T00:15:23.964Z,79.46
2023-03-24T00:16:46.636Z,79.52
2023-03-24T00:18:10.648Z,79.41
2023-03-24T00:19:38.261Z,79.58
2023-03-24T00:21:00.365Z,79.49
2023-03-24T00:22:23.107Z,79.61
2023-03-24T00:23:47.682Z,79.78
2023-03-24T00:25:11.581Z,79.92
2023-03-24T00:26:34.778Z,79.71
2023-03-24T00:27:58.160Z,80.00
2023-03-24T00:29:21.115Z,79.80
2023-03-24T00:30:42.893Z,80.01
2023-03-24T00:32:05.961Z,80.28
2023-03-24T00:33:31.617Z,79.83
2023-03-24T00:34:54.397Z,79.94
2023-03-24T00:36:17.035Z,80.02
2023-03-24T00:37:41.655Z,80.03
2023-03-24T00:39:05.193Z,79.98
2023-03-24T00:40:29.214Z,80.22
2023-03-24T00:41:51.603Z,80.04
2023-03-24T00:43:14.389Z,80.28
2023-03-24T00:44:37.854Z,80.37
2023-03-24T00:46:01.794Z,80.01
2023-03-24T00:47:26.078Z,80.38
2023-03-24T00:48:53.833Z,80.54
2023-03-24T00:50:20.396Z,80.21
2023-03-24T00:51:45.540Z,80.37
2023-03-24T00:53:10.012Z,80.24
2023-03-24T00:54:32.047Z,80.28
2023-03-24T00:55:54.983Z,80.34
2023-03-24T00:57:21.967Z,80.59
2023-03-24T00:58:44.553Z,80.61
2023-03-24T01:00:14.362Z,80.53
2023-03-24T01:01:38.750Z,80.72
2023-03-24T01:03:03.241Z,80.38
2023-03-24T01:04:26.458Z,80.56
2023-03-24T01:05:49.708Z,80.44
2023-03-24T01:07:11.275Z,80.42
2023-03-24T01:08:33.772Z,80.39
2023-03-24T01:09:57.525Z,80.53
2023-03-24T01:11:20.961Z,80.37
2023-03-24T01:12:42.902Z,80.52
2023-03-24T01:14:05.853Z,80.54
2023-03-24T01:15:29.916Z,80.63
2023-03-24T01:16:53.090Z,80.84
2023-03-24T01:18:16.048Z,80.94
2023-03-24T01:19:40.757Z,80.95
2023-03-24T01:21:03.388Z,80.93
2023-03-24T01:22:31.360Z,81.30
2023-03-24T01:23:54.178Z,81.21
2023-03-24T01:25:18.433Z,81.36
2023-03-24T01:26:40.981Z,81.53
2023-03-24T01:28:03.075Z,81.20
2023-03-24T01:29:25.542Z,81.51
2023-03-24T01:30:48.128Z,82.06
2023-03-24T01:32:09.880Z,81.69
2023-03-24T01:33:32.368Z,81.57
2023-03-24T01:34:55.391Z,82.02
2023-03-24T01:36:18.062Z,81.95
2023-03-24T01:37:41.173Z,81.87
2023-03-24T01:39:05.111Z,81.89
2023-03-24T01:40:30.231Z,81.96
2023-03-24T01:41:52.814Z,82.08
2023-03-24T01:43:20.058Z,82.17
2023-03-24T01:44:43.326Z,82.30
2023-03-24T01:46:15.166Z,82.16
2023-03-24T01:47:37.764Z,82.11
2023-03-24T01:49:02.452Z,81.99
2023-03-24T01:50:26.555Z,82.08
2023-03-24T01:51:53.092Z,82.04
2023-03-24T01:53:15.423Z,82.00
2023-03-24T01:54:41.009Z,81.86
2023-03-24T01:56:05.081Z,82.02
2023-03-24T01:57:30.999Z,81.78
2023-03-24T01:58:57.447Z,82.01
2023-03-24T02:00:21.814Z,81.97
2023-03-24T02:01:45.650Z,82.12
2023-03-24T02:03:09.935Z,81.64
2023-03-24T02:04:34.544Z,82.34
2023-03-24T02:05:58.655Z,81.94
2023-03-24T02:07:28.187Z,82.13
2023-03-24T02:08:55.200Z,82.02
2023-03-24T02:10:18.668Z,82.05
2023-03-24T02:11:42.202Z,82.11
2023-03-24T02:13:04.817Z,82.24
2023-03-24T02:14:26.475Z,82.28
2023-03-24T02:16:00.765Z,82.23
2023-03-24T02:17:40.939Z,82.02
2023-03-24T02:19:39.662Z,82.13
2023-03-24T02:21:42.624Z,82.18
2023-03-24T02:24:01.051Z,82.19
2023-03-24T02:26:02.234Z,82.16
2023-03-24T02:27:45.340Z,82.28
2023-03-24T02:29:32.561Z,82.56
2023-03-24T02:31:13.688Z,82.66
2023-03-24T02:33:01.375Z,82.38
2023-03-24T02:34:47.003Z,82.29
2023-03-24T02:36:36.796Z,82.64
2023-03-24T02:38:28.406Z,82.65
2023-03-24T02:40:01.961Z,82.51
2023-03-24T02:41:30.179Z,82.70
2023-03-24T02:43:08.616Z,82.64
2023-03-24T02:44:37.654Z,82.72
2023-03-24T02:46:14.044Z,82.40
2023-03-24T02:47:43.993Z,82.51
2023-03-24T02:49:17.785Z,82.44
2023-03-24T02:50:47.619Z,82.45
2023-03-24T02:52:21.641Z,82.27
2023-03-24T02:53:55.969Z,82.33
2023-03-24T02:55:25.317Z,82.45
2023-03-24T02:56:53.462Z,82.06
2023-03-24T02:58:19.446Z,82.08
2023-03-24T02:59:45.312Z,81.86
2023-03-24T03:01:13.795Z,82.02
2023-03-24T03:02:42.493Z,81.90
2023-03-24T03:04:09.904Z,81.78
2023-03-24T03:05:37.424Z,81.68
2023-03-24T03:07:09.501Z,81.82
2023-03-24T03:08:33.891Z,81.82
2023-03-24T03:10:00.954Z,81.73
2023-03-24T03:11:23.998Z,81.75
2023-03-24T03:12:51.360Z,81.70
2023-03-24T03:14:19.323Z,81.60
2023-03-24T03:15:45.293Z,81.38
2023-03-24T03:17:12.488Z,81.09
2023-03-24T03:18:40.751Z,81.34
2023-03-24T03:20:08.197Z,81.08
2023-03-24T03:21:38.978Z,81.23
2023-03-24T03:23:08.036Z,80.90
2023-03-24T03:24:35.873Z,80.67
2023-03-24T03:26:06.157Z,80.77
2023-03-24T03:27:32.251Z,80.33
2023-03-24T03:28:57.786Z,80.28
2023-03-24T03:30:25.959Z,80.55
2023-03-24T03:31:53.107Z,80.21
2023-03-24T03:33:24.553Z,80.09
2023-03-24T03:34:52.048Z,80.26
2023-03-24T03:36:18.329Z,79.85
2023-03-24T03:37:48.641Z,79.80
2023-03-24T03:39:15.999Z,79.78
2023-03-24T03:40:42.961Z,79.89
2023-03-24T03:42:07.275Z,79.68
2023-03-24T03:43:31.399Z,79.67
2023-03-24T03:44:54.361Z,79.47
2023-03-24T03:46:18.954Z,79.42
2023-03-24T03:47:41.048Z,79.30
2023-03-24T03:49:04.268Z,79.52
2023-03-24T03:50:25.861Z,79.50
2023-03-24T03:51:48.946Z,79.55
2023-03-24T03:53:11.396Z,79.33
2023-03-24T03:54:35.384Z,79.31
2023-03-24T03:55:57.927Z,79.21
2023-03-24T03:57:21.330Z,79.43
2023-03-24T03:58:46.638Z,79.10
2023-03-24T04:00:15.615Z,79.36
2023-03-24T04:01:37.752Z,79.25
2023-03-24T04:03:24.944Z,78.97
2023-03-24T04:05:06.741Z,79.25
2023-03-24T04:06:36.272Z,79.30
2023-03-24T04:08:09.379Z,78.92
2023-03-24T04:09:42.560Z,79.38
2023-03-24T04:11:23.878Z,79.35
2023-03-24T04:13:03.966Z,79.20
2023-03-24T04:14:56.628Z,79.58
2023-03-24T04:16:29.002Z,79.14
2023-03-24T04:18:04.456Z,79.38
2023-03-24T04:19:39.835Z,79.65
2023-03-24T04:21:12.860Z,79.61
2023-03-24T04:22:44.954Z,79.57
2023-03-24T04:24:27.263Z,79.84
2023-03-24T04:25:58.474Z,80.52
2023-03-24T04:27:28.571Z,80.33
2023-03-24T04:28:58.109Z,80.69
2023-03-24T04:30:27.738Z,81.21
2023-03-24T04:31:53.839Z,81.37
2023-03-24T04:33:22.316Z,81.37
2023-03-24T04:34:50.692Z,81.61
2023-03-24T04:36:22.262Z,81.63
2023-03-24T04:37:45.820Z,82.07
2023-03-24T04:39:09.416Z,82.19
2023-03-24T04:40:34.310Z,82.33
2023-03-24T04:41:58.531Z,82.52
2023-03-24T04:43:24.942Z,82.75
2023-03-24T04:44:51.213Z,82.98
2023-03-24T04:46:17.606Z,82.89
2023-03-24T04:47:46.194Z,82.74
2023-03-24T04:49:09.969Z,82.97
2023-03-24T04:50:36.815Z,82.91
2023-03-24T04:51:59.323Z,82.82
2023-03-24T04:53:22.028Z,82.99
2023-03-24T04:54:44.619Z,83.05
2023-03-24T04:56:29.482Z,83.26
2023-03-24T04:57:52.091Z,82.87
2023-03-24T04:59:15.211Z,83.09
2023-03-24T05:00:37.085Z,83.08
2023-03-24T05:02:01.123Z,83.05
2023-03-24T05:03:23.051Z,83.17
2023-03-24T05:04:45.725Z,82.87
2023-03-24T05:06:08.357Z,83.12
2023-03-24T05:07:31.692Z,82.98
2023-03-24T05:08:33.491Z,83.11
2023-03-24T05:09:36.114Z,83.24
2023-03-24T05:10:38.599Z,83.05
2023-03-24T05:11:41.148Z,82.97
2023-03-24T05:12:43.022Z,83.02
2023-03-24T05:13:46.798Z,82.84
2023-03-24T05:14:48.413Z,82.71
2023-03-24T05:15:50.952Z,82.59
2023-03-24T05:16:52.889Z,82.51
2023-03-24T05:17:57.266Z,82.39
2023-03-24T05:18:58.826Z,82.25
2023-03-24T05:20:01.467Z,82.18
2023-03-24T05:21:03.090Z,81.97
2023-03-24T05:22:05.633Z,81.80
2023-03-24T05:23:07.515Z,81.65
2023-03-24T05:24:10.440Z,81.45
2023-03-24T05:25:22.282Z,81.04
2023-03-24T05:26:28.002Z,80.66
2023-03-24T05:27:30.426Z,80.32
2023-03-24T05:28:38.448Z,79.96
2023-03-24T05:29:40.159Z,79.69
2023-03-24T05:30:42.695Z,79.26
2023-03-24T05:31:45.057Z,79.11
2023-03-24T05:32:47.628Z,78.57
2023-03-24T05:33:50.567Z,78.45
2023-03-24T05:34:53.205Z,78.23
2023-03-24T05:35:54.867Z,77.87
2023-03-24T05:36:57.740Z,77.79
2023-03-24T05:37:59.295Z,77.76
2023-03-24T05:39:01.828Z,77.81
2023-03-24T05:40:04.023Z,77.23
2023-03-24T05:41:07.145Z,77.24
2023-03-24T05:42:18.795Z,77.23
2023-03-24T05:43:21.314Z,77.17
2023-03-24T05:44:23.047Z,76.99
2023-03-24T05:45:25.845Z,76.93
2023-03-24T05:46:28.001Z,76.65
2023-03-24T05:47:30.534Z,77.00
2023-03-24T05:48:33.183Z,77.04
2023-03-24T05:49:36.574Z,76.65
2023-03-24T05:50:39.078Z,76.76
2023-03-24T05:51:41.061Z,76.73
2023-03-24T05:52:43.718Z,76.67
2023-03-24T05:53:45.614Z,76.72
2023-03-24T05:54:51.878Z,76.57
2023-03-24T05:55:53.690Z,76.42
2023-03-24T05:56:58.033Z,76.31
2023-03-24T05:58:01.938Z,76.54
2023-03-24T05:59:14.470Z,76.14
2023-03-24T06:00:17.778Z,76.17
2023-03-24T06:01:23.090Z,76.24
2023-03-24T06:02:25.376Z,76.09
2023-03-24T06:03:34.690Z,76.14
2023-03-24T06:04:38.252Z,76.16
2023-03-24T06:05:40.941Z,75.90
2023-03-24T06:06:45.557Z,75.98
2023-03-24T06:08:01.190Z,75.93
2023-03-24T06:09:04.855Z,75.88
2023-03-24T06:10:11.214Z,75.65
2023-03-24T06:11:13.080Z,75.50
2023-03-24T06:12:16.610Z,75.60
2023-03-24T06:13:29.161Z,75.53
2023-03-24T06:14:33.899Z,75.52
2023-03-24T06:15:39.330Z,75.57
2023-03-24T06:19:06.774Z,75.21
2023-03-24T06:20:15.547Z,75.45
2023-03-24T06:21:31.941Z,75.41
2023-03-24T06:22:36.202Z,75.51
2023-03-24T06:23:48.865Z,75.27
2023-03-24T06:24:58.649Z,75.21
2023-03-24T06:26:01.358Z,74.95
2023-03-24T06:27:03.976Z,75.20
2023-03-24T06:28:05.835Z,74.77
2023-03-24T06:29:08.413Z,74.60
2023-03-24T06:30:10.930Z,74.31
2023-03-24T06:31:18.480Z,74.22
2023-03-24T06:32:20.450Z,74.20
2023-03-24T06:33:25.686Z,74.04
2023-03-24T06:34:29.170Z,73.55
2023-03-24T06:35:33.391Z,73.58
2023-03-24T06:36:45.002Z,73.46
2023-03-24T06:37:47.692Z,73.29
2023-03-24T06:38:50.992Z,73.21
2023-03-24T06:39:54.563Z,73.12
2023-03-24T06:41:01.052Z,73.13
2023-03-24T06:42:03.281Z,73.15
2023-03-24T06:43:06.259Z,73.08
2023-03-24T06:44:07.877Z,72.90
2023-03-24T06:45:11.624Z,72.86
2023-03-24T06:46:13.198Z,73.02
2023-03-24T06:47:16.429Z,73.09
2023-03-24T06:48:18.017Z,72.88
2023-03-24T06:49:25.888Z,73.15
2023-03-24T06:50:32.810Z,72.78
2023-03-24T06:51:46.837Z,72.92
2023-03-24T06:52:55.277Z,73.00
2023-03-24T06:53:57.987Z,72.93
2023-03-24T06:55:10.902Z,72.72
2023-03-24T06:56:16.560Z,73.07
2023-03-24T06:57:28.793Z,72.78
2023-03-24T06:58:32.827Z,72.56
2023-03-24T06:59:36.444Z,72.66
2023-03-24T07:00:39.384Z,72.71
2023-03-24T07:01:44.014Z,72.65
2023-03-24T07:02:57.065Z,72.68
2023-03-24T07:03:58.924Z,72.73
2023-03-24T07:05:05.951Z,72.48
2023-03-24T07:06:07.512Z,72.51
2023-03-24T07:08:37.572Z,72.60
2023-03-24T07:09:40.981Z,72.69
2023-03-24T07:10:44.737Z,72.59
2023-03-24T07:11:46.487Z,72.65
2023-03-24T07:12:49.318Z,72.83
2023-03-24T07:13:59.660Z,72.64
2023-03-24T07:15:04.159Z,73.00
2023-03-24T07:16:07.591Z,72.67
2023-03-24T07:17:10.104Z,72.95
2023-03-24T07:18:13.472Z,72.98
2023-03-24T07:19:16.282Z,73.03
2023-03-24T07:20:27.838Z,73.03
2023-03-24T07:21:35.084Z,72.90
2023-03-24T07:22:39.235Z,72.88
2023-03-24T07:23:51.782Z,72.93
2023-03-24T07:24:54.327Z,72.79
2023-03-24T07:25:57.083Z,72.98
2023-03-24T07:27:09.681Z,73.00
2023-03-24T07:28:11.418Z,73.16
2023-03-24T07:29:14.020Z,73.03
2023-03-24T07:30:15.973Z,73.04
2023-03-24T07:31:18.593Z,73.16
2023-03-24T07:32:20.385Z,73.63
2023-03-24T07:33:24.223Z,73.43
2023-03-24T07:34:26.017Z,73.56
2023-03-24T07:35:28.641Z,73.58
2023-03-24T07:36:30.304Z,73.49
2023-03-24T07:37:32.821Z,73.62
2023-03-24T07:38:35.825Z,73.74
2023-03-24T07:39:48.391Z,73.80
2023-03-24T07:40:50.006Z,73.51
2023-03-24T07:41:52.718Z,73.59
2023-03-24T07:43:09.335Z,73.32
2023-03-24T07:44:11.154Z,73.34
2023-03-24T07:45:14.855Z,73.32
2023-03-24T07:46:18.149Z,73.50
2023-03-24T07:47:20.847Z,73.43
2023-03-24T07:48:22.427Z,73.46
2023-03-24T07:49:25.905Z,73.27
2023-03-24T07:50:28.219Z,73.56
2023-03-24T07:51:42.931Z,73.06
2023-03-24T07:52:48.605Z,73.08
2023-03-24T07:53:52.786Z,73.00
2023-03-24T07:54:55.293Z,72.96
2023-03-24T07:55:57.093Z,72.84
2023-03-24T07:56:59.616Z,72.96
2023-03-24T07:58:03.164Z,72.25
2023-03-24T07:59:07.657Z,72.52
2023-03-24T08:00:15.179Z,72.25
2023-03-24T08:01:36.842Z,72.44
2023-03-24T08:02:38.564Z,72.08
2023-03-24T08:03:42.485Z,71.71
2023-03-24T08:04:45.005Z,71.99
2023-03-24T08:05:47.990Z,71.78
2023-03-24T08:06:49.703Z,71.75
2023-03-24T08:07:54.227Z,71.66
2023-03-24T08:08:57.479Z,71.50
2023-03-24T08:10:00.160Z,71.20
2023-03-24T08:11:02.991Z,71.17
2023-03-24T08:12:17.439Z,70.63
2023-03-24T08:13:22.387Z,70.69
2023-03-24T08:14:26.302Z,70.49
2023-03-24T08:15:29.991Z,70.05
2023-03-24T08:16:32.555Z,69.97
2023-03-24T08:17:34.814Z,69.81
2023-03-24T08:18:37.544Z,69.42
2023-03-24T08:20:00.161Z,69.51
2023-03-24T08:21:14.157Z,69.70
2023-03-24T08:22:17.092Z,69.31
2023-03-24T08:23:18.946Z,69.14
2023-03-24T08:24:23.086Z,68.76
2023-03-24T08:25:26.006Z,68.97
2023-03-24T08:26:29.118Z,68.58
2023-03-24T08:27:30.686Z,68.65
2023-03-24T08:28:33.146Z,68.53
2023-03-24T08:29:34.747Z,68.60
2023-03-24T08:30:43.416Z,68.67
2023-03-24T08:31:45.322Z,68.61
2023-03-24T08:33:00.332Z,68.58
2023-03-24T08:34:02.079Z,68.47
2023-03-24T08:35:05.145Z,68.41
2023-03-24T08:36:08.157Z,68.46
2023-03-24T08:37:11.800Z,68.30
2023-03-24T08:38:18.601Z,68.48
2023-03-24T08:39:24.228Z,68.66
2023-03-24T08:40:27.473Z,68.51
2023-03-24T08:41:34.824Z,68.66
2023-03-24T08:42:36.884Z,68.44
2023-03-24T08:43:39.423Z,68.88
2023-03-24T08:44:41.736Z,68.93
2023-03-24T08:45:44.548Z,68.74
2023-03-24T08:46:46.177Z,68.38
2023-03-24T08:47:50.425Z,68.67
2023-03-24T08:49:03.411Z,68.53
2023-03-24T08:50:16.068Z,68.51
2023-03-24T08:51:18.135Z,68.55
2023-03-24T08:52:20.686Z,68.62
2023-03-24T08:53:23.695Z,68.62
2023-03-24T08:54:26.582Z,68.67
2023-03-24T08:55:29.578Z,68.56
2023-03-24T08:56:32.475Z,68.61
2023-03-24T08:57:34.478Z,68.65
2023-03-24T08:58:37.562Z,68.34
2023-03-24T08:59:51.324Z,68.50
2023-03-24T09:00:55.422Z,68.36
2023-03-24T09:01:57.057Z,68.30
2023-03-24T09:03:00.972Z,68.66
2023-03-24T09:04:03.940Z,68.37
2023-03-24T09:05:06.956Z,68.32
2023-03-24T09:06:10.032Z,67.99
2023-03-24T09:07:22.909Z,68.07
2023-03-24T09:08:24.931Z,67.85
2023-03-24T09:09:39.491Z,67.93
2023-03-24T09:10:43.310Z,67.44
2023-03-24T09:11:55.907Z,67.67
2023-03-24T09:12:57.489Z,67.52
2023-03-24T09:13:59.997Z,67.44
2023-03-24T09:15:02.598Z,67.48
2023-03-24T09:16:05.543Z,67.27
2023-03-24T09:17:07.555Z,67.37
2023-03-24T09:18:10.368Z,67.43
2023-03-24T09:19:12.900Z,67.39
2023-03-24T09:20:15.700Z,67.04
2023-03-24T09:21:18.351Z,66.90
2023-03-24T09:22:21.084Z,66.81
2023-03-24T09:23:22.760Z,66.65
2023-03-24T09:24:25.478Z,66.55
2023-03-24T09:25:28.365Z,66.23
2023-03-24T09:26:41.420Z,66.29
2023-03-24T09:27:43.269Z,66.20
2023-03-24T09:28:45.837Z,66.03
2023-03-24T09:29:47.986Z,66.07
2023-03-24T09:31:02.293Z,65.92
2023-03-24T09:32:03.882Z,65.63
2023-03-24T09:33:06.590Z,65.58
2023-03-24T09:34:19.158Z,65.36
2023-03-24T09:35:24.275Z,65.04
2023-03-24T09:36:36.857Z,65.07
2023-03-24T09:37:39.146Z,64.99
2023-03-24T09:38:41.756Z,64.85
2023-03-24T09:39:43.409Z,64.76
2023-03-24T09:40:52.130Z,64.51
2023-03-24T09:41:54.965Z,64.43
2023-03-24T09:43:03.839Z,64.41
2023-03-24T09:44:21.151Z,64.07
2023-03-24T09:45:27.270Z,64.02
2023-03-24T09:46:34.855Z,63.95
2023-03-24T09:47:41.938Z,63.58
2023-03-24T09:48:51.796Z,63.43
2023-03-24T09:49:56.743Z,63.22
2023-03-24T09:51:03.725Z,62.90
2023-03-24T09:52:10.399Z,62.93
2023-03-24T09:53:24.813Z,62.56
2023-03-24T09:54:32.027Z,62.54
2023-03-24T09:55:37.708Z,62.36
2023-03-24T09:56:52.617Z,62.16
2023-03-24T09:57:59.036Z,61.94
2023-03-24T09:59:05.360Z,61.50
2023-03-24T10:00:18.476Z,61.28
2023-03-24T10:01:27.240Z,61.03
2023-03-24T10:02:31.452Z,60.91
2023-03-24T10:03:33.249Z,60.93
2023-03-24T10:04:46.382Z,60.67
2023-03-24T10:05:52.893Z,60.79
2023-03-24T10:07:01.422Z,60.62
2023-03-24T10:08:18.214Z,60.74
2023-03-24T10:09:32.855Z,60.27
2023-03-24T10:10:40.843Z,60.15
2023-03-24T10:11:49.113Z,60.11
2023-03-24T10:12:58.306Z,60.31
2023-03-24T10:14:14.996Z,60.14
2023-03-24T10:15:37.135Z,60.30
2023-03-24T10:16:49.454Z,60.53
2023-03-24T10:17:57.399Z,60.32
2023-03-24T10:19:05.495Z,60.14
2023-03-24T10:20:21.161Z,59.95
2023-03-24T10:21:27.773Z,59.57
2023-03-24T10:22:37.511Z,59.36
2023-03-24T10:23:46.788Z,59.13
2023-03-24T10:24:55.111Z,59.00
2023-03-24T10:26:04.667Z,58.69
2023-03-24T10:27:16.327Z,58.46
2023-03-24T10:28:24.567Z,58.32
2023-03-24T10:29:30.024Z,57.93
2023-03-24T10:30:35.178Z,57.48
2023-03-24T10:31:38.753Z,57.35
2023-03-24T10:32:43.782Z,57.40
2023-03-24T10:33:46.359Z,57.00
2023-03-24T10:34:52.301Z,56.61
2023-03-24T10:36:00.016Z,56.54
2023-03-24T10:37:05.122Z,56.38
2023-03-24T10:38:17.551Z,56.50
2023-03-24T10:39:26.092Z,56.22
2023-03-24T10:40:37.073Z,56.20
2023-03-24T10:41:42.163Z,56.18
2023-03-24T10:42:46.627Z,55.82
2023-03-24T10:43:52.829Z,55.96
2023-03-24T10:44:54.538Z,55.67
2023-03-24T10:45:59.125Z,55.29
2023-03-24T10:47:15.014Z,55.31
2023-03-24T10:48:43.077Z,54.95
2023-03-24T10:49:53.932Z,54.95
2023-03-24T10:51:00.211Z,54.81
2023-03-24T10:52:09.637Z,54.38
2023-03-24T10:53:18.589Z,54.72
2023-03-24T10:54:23.491Z,54.96
2023-03-24T10:55:31.558Z,54.96
2023-03-24T10:56:40.002Z,55.07
2023-03-24T10:57:45.295Z,55.13
2023-03-24T10:58:49.013Z,54.89
2023-03-24T10:59:55.939Z,54.89
2023-03-24T11:01:00.708Z,54.83
2023-03-24T11:02:16.194Z,54.52
2023-03-24T11:03:24.357Z,54.38
2023-03-24T11:04:27.318Z,54.35
2023-03-24T11:05:31.621Z,54.07
2023-03-24T11:06:39.821Z,54.05
2023-03-24T11:07:46.307Z,53.89
2023-03-24T11:08:49.012Z,53.76
2023-03-24T11:10:01.118Z,53.47
2023-03-24T11:13:32.218Z,53.45
2023-03-24T11:14:45.735Z,53.67
2023-03-24T11:15:56.576Z,53.71
2023-03-24T11:17:11.383Z,54.01
2023-03-24T11:18:16.667Z,54.15
2023-03-24T11:19:22.487Z,54.28
2023-03-24T11:20:30.915Z,54.20
2023-03-24T11:21:36.236Z,54.23
2023-03-24T11:23:01.032Z,54.15
2023-03-24T11:24:11.377Z,54.05
2023-03-24T11:25:26.557Z,53.97
2023-03-24T11:26:36.733Z,53.83
2023-03-24T11:27:42.417Z,53.95
2023-03-24T11:28:48.000Z,53.80
2023-03-24T11:29:54.982Z,53.71
2023-03-24T11:30:56.837Z,53.66
2023-03-24T11:32:01.961Z,53.67
2023-03-24T11:33:04.785Z,53.63
2023-03-24T11:34:20.653Z,53.63
2023-03-24T11:35:39.095Z,53.74
2023-03-24T11:36:48.915Z,53.42
2023-03-24T11:37:51.618Z,53.22
2023-03-24T11:38:59.853Z,53.07
2023-03-24T11:40:22.155Z,53.01
2023-03-24T11:41:43.006Z,52.72
2023-03-24T11:42:47.572Z,52.50
2023-03-24T11:44:16.427Z,52.58
2023-03-24T11:45:27.886Z,52.42
2023-03-24T11:46:29.540Z,52.47
2023-03-24T11:47:42.470Z,52.42
2023-03-24T11:48:51.861Z,52.38
2023-03-24T11:50:02.163Z,52.48
2023-03-24T11:51:24.225Z,52.44
2023-03-24T11:52:31.342Z,52.48
2023-03-24T11:53:41.825Z,52.41
2023-03-24T11:54:43.753Z,52.37
2023-03-24T11:55:53.653Z,52.11
2023-03-24T11:56:58.892Z,51.91
2023-03-24T11:58:04.622Z,51.92
2023-03-24T11:59:15.598Z,51.80
2023-03-24T12:00:23.660Z,51.81
2023-03-24T12:01:37.840Z,52.06
2023-03-24T12:02:54.449Z,52.13
2023-03-24T12:04:20.184Z,52.31
2023-03-24T12:05:32.205Z,52.10
2023-03-24T12:06:56.950Z,52.31
2023-03-24T12:08:18.991Z,52.29
2023-03-24T12:09:32.736Z,52.34
2023-03-24T12:10:45.398Z,52.14
2023-03-24T12:12:08.292Z,52.26
2023-03-24T12:13:25.989Z,52.35
2023-03-24T12:14:49.379Z,52.29
2023-03-24T12:16:15.953Z,52.19
2023-03-24T12:17:23.988Z,51.85
2023-03-24T12:18:48.780Z,51.74
2023-03-24T12:20:22.440Z,51.56
2023-03-24T12:21:53.394Z,51.64
2023-03-24T12:23:01.156Z,51.47
2023-03-24T12:24:17.177Z,51.33
2023-03-24T12:25:29.038Z,51.23
2023-03-24T12:26:35.640Z,51.25
2023-03-24T12:27:46.952Z,50.96
2023-03-24T12:29:18.896Z,51.04
2023-03-24T12:30:30.711Z,51.05
2023-03-24T12:32:00.626Z,51.00
2023-03-24T12:33:31.303Z,51.42
2023-03-24T12:34:54.604Z,51.07
2023-03-24T12:36:21.025Z,51.28
2023-03-24T12:37:30.937Z,51.42
2023-03-24T12:38:49.733Z,51.18
2023-03-24T12:40:03.069Z,50.84
2023-03-24T12:41:25.219Z,50.75
2023-03-24T12:42:36.395Z,50.56
2023-03-24T12:43:47.442Z,50.36
2023-03-24T12:45:26.125Z,50.30
2023-03-24T12:46:51.439Z,50.74
2023-03-24T12:48:28.331Z,50.61
2023-03-24T12:49:52.856Z,51.06
2023-03-24T12:51:10.609Z,51.15
